sensor_id;sensor_type;location;lat;lon;timestamp;P1;durP1;ratioP1;P2;durP2;ratioP2
65279;SDS011;51878;55.748;48.742;2023-04-03T00:00:31;6.72;;;4.03;;
65279;SDS011;51878;55.748;48.742;2023-04-03T00:05:33;6.70;;;4.03;;
65279;SDS011;51878;55.748;48.742;2023-04-03T00:10:36;7.88;;;3.70;;
65279;SDS011;51878;55.748;48.742;2023-04-03T00:15:39;11.02;;;4.10;;
65279;SDS011;51878;55.748;48.742;2023-04-03T00:20:42;13.35;;;4.03;;
65279;SDS011;51878;55.748;48.742;2023-04-03T00:25:44;8.45;;;3.60;;
65279;SDS011;51878;55.748;48.742;2023-04-03T00:30:48;8.20;;;3.70;;
65279;SDS011;51878;55.748;48.742;2023-04-03T00:35:51;7.28;;;3.35;;
65279;SDS011;51878;55.748;48.742;2023-04-03T00:40:59;6.68;;;3.97;;
65279;SDS011;51878;55.748;48.742;2023-04-03T00:46:01;8.75;;;3.85;;
65279;SDS011;51878;55.748;48.742;2023-04-03T00:51:04;7.72;;;3.35;;
65279;SDS011;51878;55.748;48.742;2023-04-03T00:56:09;10.00;;;3.67;;
65279;SDS011;51878;55.748;48.742;2023-04-03T01:01:15;8.60;;;3.78;;
65279;SDS011;51878;55.748;48.742;2023-04-03T01:06:43;9.45;;;3.85;;
65279;SDS011;51878;55.748;48.742;2023-04-03T01:11:44;9.13;;;4.13;;
65279;SDS011;51878;55.748;48.742;2023-04-03T01:16:53;9.10;;;3.60;;
65279;SDS011;51878;55.748;48.742;2023-04-03T01:22:04;9.88;;;4.05;;
65279;SDS011;51878;55.748;48.742;2023-04-03T01:27:20;7.15;;;3.60;;
65279;SDS011;51878;55.748;48.742;2023-04-03T01:32:23;7.32;;;4.18;;
65279;SDS011;51878;55.748;48.742;2023-04-03T01:37:25;12.55;;;3.65;;
65279;SDS011;51878;55.748;48.742;2023-04-03T01:42:27;6.72;;;3.95;;
65279;SDS011;51878;55.748;48.742;2023-04-03T01:47:29;5.65;;;3.80;;
65279;SDS011;51878;55.748;48.742;2023-04-03T01:52:31;9.63;;;4.10;;
65279;SDS011;51878;55.748;48.742;2023-04-03T01:57:33;6.63;;;3.88;;
65279;SDS011;51878;55.748;48.742;2023-04-03T02:02:35;16.02;;;3.88;;
65279;SDS011;51878;55.748;48.742;2023-04-03T02:07:37;9.73;;;4.15;;
65279;SDS011;51878;55.748;48.742;2023-04-03T02:12:39;11.48;;;3.95;;
65279;SDS011;51878;55.748;48.742;2023-04-03T02:17:42;7.28;;;3.40;;
65279;SDS011;51878;55.748;48.742;2023-04-03T02:22:44;5.38;;;3.75;;
65279;SDS011;51878;55.748;48.742;2023-04-03T02:27:47;7.57;;;3.97;;
65279;SDS011;51878;55.748;48.742;2023-04-03T02:32:49;10.60;;;3.65;;
65279;SDS011;51878;55.748;48.742;2023-04-03T02:37:51;8.32;;;3.72;;
65279;SDS011;51878;55.748;48.742;2023-04-03T02:42:53;10.68;;;3.88;;
65279;SDS011;51878;55.748;48.742;2023-04-03T02:47:55;9.88;;;3.83;;
65279;SDS011;51878;55.748;48.742;2023-04-03T02:52:57;8.50;;;3.78;;
65279;SDS011;51878;55.748;48.742;2023-04-03T02:57:59;5.63;;;3.50;;
65279;SDS011;51878;55.748;48.742;2023-04-03T03:03:01;8.60;;;4.10;;
65279;SDS011;51878;55.748;48.742;2023-04-03T03:08:04;8.02;;;3.88;;
65279;SDS011;51878;55.748;48.742;2023-04-03T03:13:06;9.32;;;3.50;;
65279;SDS011;51878;55.748;48.742;2023-04-03T03:18:08;8.07;;;3.80;;
65279;SDS011;51878;55.748;48.742;2023-04-03T03:23:10;11.10;;;3.75;;
65279;SDS011;51878;55.748;48.742;2023-04-03T03:28:12;7.80;;;3.83;;
65279;SDS011;51878;55.748;48.742;2023-04-03T03:33:14;5.15;;;3.45;;
65279;SDS011;51878;55.748;48.742;2023-04-03T03:38:16;7.00;;;3.60;;
65279;SDS011;51878;55.748;48.742;2023-04-03T03:43:21;5.88;;;3.20;;
65279;SDS011;51878;55.748;48.742;2023-04-03T03:48:26;6.97;;;3.38;;
65279;SDS011;51878;55.748;48.742;2023-04-03T03:53:28;5.65;;;3.03;;
65279;SDS011;51878;55.748;48.742;2023-04-03T03:58:30;7.90;;;2.88;;
65279;SDS011;51878;55.748;48.742;2023-04-03T04:03:32;7.97;;;3.08;;
65279;SDS011;51878;55.748;48.742;2023-04-03T04:08:36;5.88;;;2.80;;
65279;SDS011;51878;55.748;48.742;2023-04-03T04:14:30;4.75;;;2.50;;
65279;SDS011;51878;55.748;48.742;2023-04-03T04:19:35;9.65;;;2.83;;
65279;SDS011;51878;55.748;48.742;2023-04-03T04:24:37;4.85;;;2.55;;
65279;SDS011;51878;55.748;48.742;2023-04-03T04:29:40;4.82;;;2.40;;
65279;SDS011;51878;55.748;48.742;2023-04-03T04:34:42;12.60;;;2.67;;
65279;SDS011;51878;55.748;48.742;2023-04-03T04:39:44;5.47;;;2.70;;
65279;SDS011;51878;55.748;48.742;2023-04-03T04:44:46;9.63;;;2.70;;
65279;SDS011;51878;55.748;48.742;2023-04-03T04:49:48;6.97;;;2.50;;
65279;SDS011;51878;55.748;48.742;2023-04-03T04:54:50;4.47;;;2.55;;
65279;SDS011;51878;55.748;48.742;2023-04-03T04:59:53;4.50;;;2.33;;
65279;SDS011;51878;55.748;48.742;2023-04-03T05:04:55;6.72;;;2.95;;
65279;SDS011;51878;55.748;48.742;2023-04-03T05:09:57;8.50;;;2.50;;
65279;SDS011;51878;55.748;48.742;2023-04-03T05:14:59;6.60;;;2.47;;
65279;SDS011;51878;55.748;48.742;2023-04-03T05:20:02;6.40;;;2.42;;
65279;SDS011;51878;55.748;48.742;2023-04-03T05:25:08;5.78;;;2.30;;
65279;SDS011;51878;55.748;48.742;2023-04-03T05:30:10;5.13;;;2.08;;
65279;SDS011;51878;55.748;48.742;2023-04-03T05:35:13;5.55;;;2.13;;
65279;SDS011;51878;55.748;48.742;2023-04-03T05:40:16;9.85;;;2.35;;
65279;SDS011;51878;55.748;48.742;2023-04-03T05:45:19;12.48;;;4.05;;
65279;SDS011;51878;55.748;48.742;2023-04-03T05:50:21;8.68;;;2.20;;
65279;SDS011;51878;55.748;48.742;2023-04-03T05:55:26;4.57;;;1.83;;
65279;SDS011;51878;55.748;48.742;2023-04-03T06:00:30;5.82;;;2.03;;
65279;SDS011;51878;55.748;48.742;2023-04-03T06:05:33;28.45;;;3.72;;
65279;SDS011;51878;55.748;48.742;2023-04-03T06:10:35;18.13;;;1.95;;
65279;SDS011;51878;55.748;48.742;2023-04-03T06:15:39;10.02;;;3.83;;
65279;SDS011;51878;55.748;48.742;2023-04-03T06:20:41;4.40;;;2.03;;
65279;SDS011;51878;55.748;48.742;2023-04-03T06:25:44;5.38;;;1.92;;
65279;SDS011;51878;55.748;48.742;2023-04-03T06:30:46;8.23;;;1.90;;
65279;SDS011;51878;55.748;48.742;2023-04-03T06:35:48;8.38;;;1.95;;
65279;SDS011;51878;55.748;48.742;2023-04-03T06:40:51;7.25;;;1.70;;
65279;SDS011;51878;55.748;48.742;2023-04-03T06:45:53;7.80;;;1.90;;
65279;SDS011;51878;55.748;48.742;2023-04-03T06:50:55;3.42;;;1.67;;
65279;SDS011;51878;55.748;48.742;2023-04-03T06:55:58;6.40;;;2.10;;
65279;SDS011;51878;55.748;48.742;2023-04-03T07:01:00;5.97;;;1.95;;
65279;SDS011;51878;55.748;48.742;2023-04-03T07:06:05;4.35;;;1.80;;
65279;SDS011;51878;55.748;48.742;2023-04-03T07:11:08;4.57;;;1.67;;
65279;SDS011;51878;55.748;48.742;2023-04-03T07:16:11;7.38;;;2.95;;
65279;SDS011;51878;55.748;48.742;2023-04-03T07:21:14;11.25;;;2.13;;
65279;SDS011;51878;55.748;48.742;2023-04-03T07:26:16;3.97;;;1.77;;
65279;SDS011;51878;55.748;48.742;2023-04-03T07:31:18;2.85;;;1.58;;
65279;SDS011;51878;55.748;48.742;2023-04-03T07:36:21;5.53;;;1.80;;
65279;SDS011;51878;55.748;48.742;2023-04-03T07:41:24;3.67;;;1.73;;
65279;SDS011;51878;55.748;48.742;2023-04-03T07:46:26;7.15;;;1.80;;
65279;SDS011;51878;55.748;48.742;2023-04-03T07:51:28;5.10;;;1.90;;
65279;SDS011;51878;55.748;48.742;2023-04-03T07:56:31;7.85;;;1.80;;
65279;SDS011;51878;55.748;48.742;2023-04-03T08:01:33;9.18;;;1.95;;
65279;SDS011;51878;55.748;48.742;2023-04-03T08:06:36;4.90;;;2.30;;
65279;SDS011;51878;55.748;48.742;2023-04-03T08:11:47;6.40;;;1.90;;
65279;SDS011;51878;55.748;48.742;2023-04-03T08:16:51;5.00;;;1.88;;
65279;SDS011;51878;55.748;48.742;2023-04-03T08:21:53;20.13;;;2.42;;
65279;SDS011;51878;55.748;48.742;2023-04-03T08:26:56;6.07;;;1.90;;
65279;SDS011;51878;55.748;48.742;2023-04-03T08:31:59;2.28;;;1.48;;
65279;SDS011;51878;55.748;48.742;2023-04-03T08:37:01;21.35;;;2.20;;
65279;SDS011;51878;55.748;48.742;2023-04-03T08:42:05;4.18;;;1.80;;
65279;SDS011;51878;55.748;48.742;2023-04-03T08:47:38;14.85;;;1.90;;
65279;SDS011;51878;55.748;48.742;2023-04-03T08:52:48;12.38;;;2.35;;
65279;SDS011;51878;55.748;48.742;2023-04-03T08:58:01;9.95;;;2.63;;
65279;SDS011;51878;55.748;48.742;2023-04-03T09:03:05;6.47;;;1.80;;
65279;SDS011;51878;55.748;48.742;2023-04-03T09:08:12;7.90;;;1.83;;
65279;SDS011;51878;55.748;48.742;2023-04-03T09:13:33;8.18;;;1.92;;
65279;SDS011;51878;55.748;48.742;2023-04-03T09:18:45;7.05;;;1.80;;
65279;SDS011;51878;55.748;48.742;2023-04-03T09:24:00;11.57;;;1.88;;
65279;SDS011;51878;55.748;48.742;2023-04-03T09:29:06;7.22;;;1.85;;
65279;SDS011;51878;55.748;48.742;2023-04-03T09:34:15;9.13;;;1.63;;
65279;SDS011;51878;55.748;48.742;2023-04-03T09:39:26;11.77;;;2.08;;
65279;SDS011;51878;55.748;48.742;2023-04-03T09:44:37;6.85;;;1.63;;
65279;SDS011;51878;55.748;48.742;2023-04-03T09:49:49;14.75;;;2.00;;
65279;SDS011;51878;55.748;48.742;2023-04-03T09:54:51;7.85;;;1.98;;
65279;SDS011;51878;55.748;48.742;2023-04-03T09:59:57;10.35;;;2.08;;
65279;SDS011;51878;55.748;48.742;2023-04-03T10:05:01;15.50;;;1.85;;
65279;SDS011;51878;55.748;48.742;2023-04-03T10:15:33;14.82;;;1.88;;
65279;SDS011;51878;55.748;48.742;2023-04-03T10:20:44;21.60;;;2.22;;
65279;SDS011;51878;55.748;48.742;2023-04-03T10:46:40;10.73;;;1.77;;
65279;SDS011;51878;55.748;48.742;2023-04-03T10:57:21;11.10;;;2.20;;
65279;SDS011;51878;55.748;48.742;2023-04-03T11:02:33;14.40;;;1.77;;
65279;SDS011;51878;55.748;48.742;2023-04-03T11:07:51;13.57;;;2.17;;
65279;SDS011;51878;55.748;48.742;2023-04-03T11:12:59;12.82;;;1.60;;
65279;SDS011;51878;55.748;48.742;2023-04-03T11:18:10;15.88;;;2.20;;
65279;SDS011;51878;55.748;48.742;2023-04-03T11:23:26;10.63;;;1.98;;
65279;SDS011;51878;55.748;48.742;2023-04-03T11:28:53;12.25;;;1.77;;
65279;SDS011;51878;55.748;48.742;2023-04-03T11:39:33;11.48;;;1.88;;
65279;SDS011;51878;55.748;48.742;2023-04-03T11:44:40;16.52;;;2.60;;
65279;SDS011;51878;55.748;48.742;2023-04-03T12:37:14;15.98;;;2.30;;
65279;SDS011;51878;55.748;48.742;2023-04-03T12:47:34;12.32;;;2.30;;
65279;SDS011;51878;55.748;48.742;2023-04-03T12:52:40;15.63;;;2.20;;
65279;SDS011;51878;55.748;48.742;2023-04-03T12:57:46;12.75;;;1.98;;
65279;SDS011;51878;55.748;48.742;2023-04-03T13:02:48;14.43;;;2.13;;
65279;SDS011;51878;55.748;48.742;2023-04-03T13:08:00;15.32;;;2.10;;
65279;SDS011;51878;55.748;48.742;2023-04-03T13:13:08;14.13;;;1.92;;
65279;SDS011;51878;55.748;48.742;2023-04-03T13:18:28;14.10;;;2.20;;
65279;SDS011;51878;55.748;48.742;2023-04-03T13:23:36;17.10;;;2.00;;
65279;SDS011;51878;55.748;48.742;2023-04-03T13:28:41;14.73;;;2.15;;
65279;SDS011;51878;55.748;48.742;2023-04-03T13:33:53;13.52;;;2.13;;
65279;SDS011;51878;55.748;48.742;2023-04-03T13:39:17;19.10;;;2.10;;
65279;SDS011;51878;55.748;48.742;2023-04-03T13:49:38;11.32;;;1.60;;
65279;SDS011;51878;55.748;48.742;2023-04-03T13:54:47;15.82;;;2.15;;
65279;SDS011;51878;55.748;48.742;2023-04-03T13:59:54;12.75;;;2.10;;
65279;SDS011;51878;55.748;48.742;2023-04-03T14:04:58;15.23;;;1.60;;
65279;SDS011;51878;55.748;48.742;2023-04-03T14:10:03;18.60;;;1.80;;
65279;SDS011;51878;55.748;48.742;2023-04-03T14:15:16;13.00;;;1.90;;
65279;SDS011;51878;55.748;48.742;2023-04-03T14:20:23;12.73;;;1.88;;
65279;SDS011;51878;55.748;48.742;2023-04-03T14:25:39;17.60;;;1.95;;
65279;SDS011;51878;55.748;48.742;2023-04-03T14:30:42;15.43;;;1.85;;
65279;SDS011;51878;55.748;48.742;2023-04-03T14:35:45;10.32;;;1.67;;
65279;SDS011;51878;55.748;48.742;2023-04-03T14:40:48;24.95;;;2.78;;
65279;SDS011;51878;55.748;48.742;2023-04-03T14:45:50;16.23;;;2.35;;
65279;SDS011;51878;55.748;48.742;2023-04-03T14:50:54;20.45;;;2.80;;
65279;SDS011;51878;55.748;48.742;2023-04-03T14:56:16;31.45;;;2.30;;
65279;SDS011;51878;55.748;48.742;2023-04-03T15:01:23;19.98;;;2.25;;
65279;SDS011;51878;55.748;48.742;2023-04-03T15:06:26;48.90;;;3.42;;
65279;SDS011;51878;55.748;48.742;2023-04-03T15:11:28;51.90;;;3.67;;
65279;SDS011;51878;55.748;48.742;2023-04-03T15:16:30;35.28;;;3.72;;
65279;SDS011;51878;55.748;48.742;2023-04-03T15:21:32;24.95;;;3.30;;
65279;SDS011;51878;55.748;48.742;2023-04-03T15:26:35;34.22;;;2.83;;
65279;SDS011;51878;55.748;48.742;2023-04-03T15:31:37;26.42;;;2.88;;
65279;SDS011;51878;55.748;48.742;2023-04-03T15:36:39;26.00;;;2.63;;
65279;SDS011;51878;55.748;48.742;2023-04-03T15:41:41;34.40;;;3.13;;
65279;SDS011;51878;55.748;48.742;2023-04-03T15:46:47;28.63;;;3.30;;
65279;SDS011;51878;55.748;48.742;2023-04-03T15:51:53;17.35;;;3.45;;
65279;SDS011;51878;55.748;48.742;2023-04-03T15:56:58;20.42;;;2.83;;
65279;SDS011;51878;55.748;48.742;2023-04-03T16:02:03;15.48;;;2.40;;
65279;SDS011;51878;55.748;48.742;2023-04-03T16:07:08;13.10;;;2.58;;
65279;SDS011;51878;55.748;48.742;2023-04-03T16:12:16;18.05;;;2.42;;
65279;SDS011;51878;55.748;48.742;2023-04-03T16:17:18;24.02;;;2.30;;
65279;SDS011;51878;55.748;48.742;2023-04-03T16:22:20;23.02;;;2.80;;
65279;SDS011;51878;55.748;48.742;2023-04-03T16:27:22;30.02;;;3.55;;
65279;SDS011;51878;55.748;48.742;2023-04-03T16:32:29;23.25;;;3.58;;
65279;SDS011;51878;55.748;48.742;2023-04-03T16:37:32;25.15;;;3.90;;
65279;SDS011;51878;55.748;48.742;2023-04-03T16:42:34;15.75;;;4.25;;
65279;SDS011;51878;55.748;48.742;2023-04-03T16:47:37;16.42;;;3.05;;
65279;SDS011;51878;55.748;48.742;2023-04-03T16:52:40;20.23;;;2.80;;
65279;SDS011;51878;55.748;48.742;2023-04-03T16:57:45;39.83;;;3.08;;
65279;SDS011;51878;55.748;48.742;2023-04-03T17:02:49;8.00;;;3.53;;
65279;SDS011;51878;55.748;48.742;2023-04-03T17:07:51;17.20;;;3.10;;
65279;SDS011;51878;55.748;48.742;2023-04-03T17:12:53;17.75;;;2.47;;
65279;SDS011;51878;55.748;48.742;2023-04-03T17:18:00;14.02;;;2.70;;
65279;SDS011;51878;55.748;48.742;2023-04-03T17:23:03;12.63;;;2.58;;
65279;SDS011;51878;55.748;48.742;2023-04-03T17:28:22;16.02;;;3.00;;
65279;SDS011;51878;55.748;48.742;2023-04-03T17:33:29;24.50;;;3.92;;
65279;SDS011;51878;55.748;48.742;2023-04-03T17:38:33;17.08;;;3.10;;
65279;SDS011;51878;55.748;48.742;2023-04-03T17:43:37;12.55;;;3.20;;
65279;SDS011;51878;55.748;48.742;2023-04-03T17:48:42;32.70;;;3.80;;
65279;SDS011;51878;55.748;48.742;2023-04-03T17:53:46;25.15;;;3.25;;
65279;SDS011;51878;55.748;48.742;2023-04-03T17:58:49;20.48;;;3.30;;
65279;SDS011;51878;55.748;48.742;2023-04-03T18:03:55;19.00;;;3.15;;
65279;SDS011;51878;55.748;48.742;2023-04-03T18:09:06;19.98;;;5.55;;
65279;SDS011;51878;55.748;48.742;2023-04-03T18:14:12;22.60;;;4.53;;
65279;SDS011;51878;55.748;48.742;2023-04-03T18:19:16;28.92;;;3.92;;
65279;SDS011;51878;55.748;48.742;2023-04-03T18:24:24;16.48;;;3.63;;
65279;SDS011;51878;55.748;48.742;2023-04-03T18:29:30;17.10;;;3.85;;
65279;SDS011;51878;55.748;48.742;2023-04-03T18:34:34;16.38;;;4.13;;
65279;SDS011;51878;55.748;48.742;2023-04-03T18:39:36;14.77;;;3.80;;
65279;SDS011;51878;55.748;48.742;2023-04-03T18:44:39;14.77;;;3.25;;
65279;SDS011;51878;55.748;48.742;2023-04-03T18:49:43;7.45;;;3.10;;
65279;SDS011;51878;55.748;48.742;2023-04-03T18:54:46;17.17;;;3.05;;
65279;SDS011;51878;55.748;48.742;2023-04-03T18:59:48;16.83;;;3.42;;
65279;SDS011;51878;55.748;48.742;2023-04-03T19:04:57;26.88;;;3.83;;
65279;SDS011;51878;55.748;48.742;2023-04-03T19:10:03;16.85;;;3.25;;
65279;SDS011;51878;55.748;48.742;2023-04-03T19:15:05;13.05;;;3.38;;
65279;SDS011;51878;55.748;48.742;2023-04-03T19:20:08;14.75;;;2.75;;
65279;SDS011;51878;55.748;48.742;2023-04-03T19:25:12;24.30;;;2.60;;
65279;SDS011;51878;55.748;48.742;2023-04-03T19:30:15;12.40;;;2.70;;
65279;SDS011;51878;55.748;48.742;2023-04-03T19:35:20;9.73;;;3.03;;
65279;SDS011;51878;55.748;48.742;2023-04-03T19:40:23;17.13;;;2.55;;
65279;SDS011;51878;55.748;48.742;2023-04-03T19:45:26;17.75;;;2.70;;
65279;SDS011;51878;55.748;48.742;2023-04-03T19:50:31;11.98;;;2.78;;
65279;SDS011;51878;55.748;48.742;2023-04-03T19:55:34;14.30;;;3.58;;
65279;SDS011;51878;55.748;48.742;2023-04-03T20:00:36;14.32;;;2.80;;
65279;SDS011;51878;55.748;48.742;2023-04-03T20:05:39;7.28;;;2.20;;
65279;SDS011;51878;55.748;48.742;2023-04-03T20:10:41;22.20;;;2.85;;
65279;SDS011;51878;55.748;48.742;2023-04-03T20:15:44;15.90;;;2.85;;
65279;SDS011;51878;55.748;48.742;2023-04-03T20:20:53;17.63;;;3.10;;
65279;SDS011;51878;55.748;48.742;2023-04-03T20:26:00;13.02;;;2.05;;
65279;SDS011;51878;55.748;48.742;2023-04-03T20:31:10;10.73;;;2.47;;
65279;SDS011;51878;55.748;48.742;2023-04-03T20:36:15;15.63;;;2.50;;
65279;SDS011;51878;55.748;48.742;2023-04-03T20:41:18;12.55;;;2.70;;
65279;SDS011;51878;55.748;48.742;2023-04-03T20:46:20;9.02;;;2.53;;
65279;SDS011;51878;55.748;48.742;2023-04-03T20:51:25;15.60;;;2.50;;
65279;SDS011;51878;55.748;48.742;2023-04-03T20:56:29;10.13;;;2.30;;
65279;SDS011;51878;55.748;48.742;2023-04-03T21:01:35;15.63;;;1.85;;
65279;SDS011;51878;55.748;48.742;2023-04-03T21:23:04;16.10;;;2.17;;
65279;SDS011;51878;55.748;48.742;2023-04-03T21:28:07;13.23;;;2.33;;
65279;SDS011;51878;55.748;48.742;2023-04-03T21:33:09;13.20;;;2.20;;
65279;SDS011;51878;55.748;48.742;2023-04-03T21:38:13;15.93;;;2.53;;
65279;SDS011;51878;55.748;48.742;2023-04-03T21:43:17;12.85;;;2.35;;
65279;SDS011;51878;55.748;48.742;2023-04-03T21:48:19;14.65;;;2.00;;
65279;SDS011;51878;55.748;48.742;2023-04-03T21:53:21;29.70;;;3.55;;
65279;SDS011;51878;55.748;48.742;2023-04-03T21:58:27;22.38;;;2.22;;
65279;SDS011;51878;55.748;48.742;2023-04-03T22:03:34;13.47;;;2.40;;
65279;SDS011;51878;55.748;48.742;2023-04-03T22:08:36;16.25;;;2.28;;
65279;SDS011;51878;55.748;48.742;2023-04-03T22:13:39;14.15;;;2.67;;
65279;SDS011;51878;55.748;48.742;2023-04-03T22:18:41;17.77;;;2.53;;
65279;SDS011;51878;55.748;48.742;2023-04-03T22:23:43;12.45;;;2.28;;
65279;SDS011;51878;55.748;48.742;2023-04-03T22:28:46;15.30;;;2.65;;
65279;SDS011;51878;55.748;48.742;2023-04-03T22:33:48;11.15;;;2.60;;
65279;SDS011;51878;55.748;48.742;2023-04-03T22:38:50;15.10;;;2.30;;
65279;SDS011;51878;55.748;48.742;2023-04-03T22:43:52;19.02;;;2.47;;
65279;SDS011;51878;55.748;48.742;2023-04-03T22:48:54;16.17;;;2.45;;
65279;SDS011;51878;55.748;48.742;2023-04-03T22:53:56;18.25;;;2.13;;
65279;SDS011;51878;55.748;48.742;2023-04-03T22:58:58;17.25;;;2.83;;
65279;SDS011;51878;55.748;48.742;2023-04-03T23:04:00;12.05;;;2.58;;
65279;SDS011;51878;55.748;48.742;2023-04-03T23:09:02;15.40;;;2.58;;
65279;SDS011;51878;55.748;48.742;2023-04-03T23:14:04;16.73;;;2.90;;
65279;SDS011;51878;55.748;48.742;2023-04-03T23:19:06;12.15;;;2.78;;
65279;SDS011;51878;55.748;48.742;2023-04-03T23:24:09;13.77;;;2.22;;
65279;SDS011;51878;55.748;48.742;2023-04-03T23:29:12;10.60;;;2.13;;
65279;SDS011;51878;55.748;48.742;2023-04-03T23:34:14;3.72;;;1.65;;
65279;SDS011;51878;55.748;48.742;2023-04-03T23:39:16;6.38;;;1.85;;
65279;SDS011;51878;55.748;48.742;2023-04-03T23:44:20;10.05;;;2.33;;
65279;SDS011;51878;55.748;48.742;2023-04-03T23:49:22;7.80;;;2.30;;
65279;SDS011;51878;55.748;48.742;2023-04-03T23:54:24;8.27;;;2.50;;
65279;SDS011;51878;55.748;48.742;2023-04-03T23:59:26;13.48;;;2.35;;
